Harkeyville, Texas
Current Conditions -  °F | °C
As of 4:35 AM on Sunday 23 Nov 2014 (Local Time) from KAQO Reporting Station
Haze Haze  
Wind Chill: 48°   Ceiling: 500
Heat Index: 48°   Visibility: 0.75mi
Dew Point: 48°   Wind: 0mph
Humidity: 100%   Direction: NA
Pressure: 29.71"   Gusts: NA
Location:  31.0718°N, 98.8001°W
Report Text: KAQO 231035Z AUTO 00000KT 3/4SM BR VV005 09/09 A2971 RMK AO2
Loading
Personal Weather Stations






























Interactive Weather Map New forecast layout! Learn more

10-Day Weather Forecast

Advertisements
Track Severe Weather on mobile